Terminal Aerodrome Forecast
Issued by NWS

Home | Current Version | Previous Version | Graphics & Text | Print | Product List | Glossary On
Versions: 1 2 3 4 5 6 7 8 9 10 11 12 13 14 15 16 17
000
FTUS43 KICT 182225 AAA
TAFCNU
TAF AMD
KCNU 182225Z 1822/1918 19009KT P6SM SCT030
     FM190200 14007KT P6SM SKC
     FM190900 15007KT P6SM BKN050
     FM191500 18013KT P6SM SCT050=

USA.gov is the U.S. government's official web portal to all federal, state and local government web resources and services.